Loran, Illinois
Current Conditions -  °F | °C
As of 11:55 AM on Tuesday 21 Oct 2014 (Local Time) from KFEP Reporting Station
Broken Clouds Broken Clouds  
Wind Chill: 51°   Ceiling: 2900
Heat Index: 51°   Visibility: 10mi
Dew Point: 38°   Wind: 8mph
Humidity: 60%   Direction: 60°ENE
Pressure: 30.22"   Gusts: NA
Location:  42.2523°N, 89.8438°W
Report Text: KFEP 211655Z AUTO 06007KT 10SM BKN029 11/03 A3022 RMK AO2 T01080032
Loading
Personal Weather Stations






























Interactive Weather Map
Tropical Storm Tracking
New forecast layout! Learn more

10-Day Weather Forecast

Advertisements
Track Severe Weather on mobile